23 maja 2022

Czas Kod Pogoda Temp. Widoczność Chmury Wiatr METAR/SPECI
09:55
V
20 °C 10 km+ 10.000 ft 130°   130° 4 kt METAR EHEH 230755Z AUTO 13004KT 090V170 9999 SCT098 OVC100 20/13 Q1003 BLU NOSIG
09:25
V
18 °C 10 km+ 9.700 ft Var   Var 5 kt METAR EHEH 230725Z AUTO VRB05KT 9999 FEW072 BKN097 OVC100 18/12 Q1003 BLU NOSIG
08:55
V
19 °C 10 km+ 10.000 ft 130°   130° 5 kt METAR EHEH 230655Z AUTO 13005KT 9999 OVC100 19/12 Q1003 BLU NOSIG
08:25
V
18 °C 10 km+ 17.000 ft 120°   120° 4 kt METAR EHEH 230625Z AUTO 12004KT 040V170 9999 OVC170 18/12 Q1003 BLU NOSIG
07:55
V
18 °C 10 km+ 10.000 ft 100°   100° 5 kt METAR EHEH 230555Z AUTO 10005KT 030V130 9999 OVC100 18/12 Q1003 BLU NOSIG
07:25
V
17 °C 10 km+ 10.000 ft 100°   100° 3 kt METAR EHEH 230525Z AUTO 10003KT 040V160 9999 BKN100 OVC210 17/12 Q1004 BLU NOSIG
06:55
V
16 °C 10 km+ 12.000 ft 110°   110° 4 kt METAR EHEH 230455Z AUTO 11004KT 010V140 9999 OVC120 16/12 Q1004 BLU NOSIG
06:31
V
16 °C 10 km+ 12.000 ft Var   Var 2 kt METAR EHEH 230431Z AUTO VRB02KT 9999 OVC120 16/12 Q1004 BLU NOSIG
06:25
V
16 °C 10 km+ 12.000 ft 100°   100° 3 kt METAR EHEH 230425Z AUTO 10003KT 360V130 9999 OVC120 16/12 Q1004 BLU
05:55
V
16 °C 10 km+ 11.000 ft 100°   100° 2 kt METAR EHEH 230355Z AUTO 10002KT 9999 OVC110 16/11 Q1005 BLU
05:25
V
16 °C 10 km+ 12.000 ft 100°   100° 3 kt METAR EHEH 230325Z AUTO 10003KT 060V130 9999 OVC120 16/11 Q1005 BLU
04:55
V
16 °C 10 km+ 12.000 ft Var   Var 2 kt METAR EHEH 230255Z AUTO VRB02KT 9999 OVC120 16/11 Q1006 BLU
04:25
V
16 °C 10 km+ 13.000 ft 070°   070° 3 kt METAR EHEH 230225Z AUTO 07003KT 9999 OVC130 16/11 Q1006 BLU
03:55
V
16 °C 10 km+ 12.000 ft Var   Var 2 kt METAR EHEH 230155Z AUTO VRB02KT 9999 OVC120 16/11 Q1007 BLU
03:25
V
17 °C 10 km+ 11.000 ft 060°   060° 4 kt METAR EHEH 230125Z AUTO 06004KT 340V070 9999 OVC110 17/11 Q1007 BLU
02:55
V
17 °C 10 km+ 11.000 ft 060°   060° 4 kt METAR EHEH 230055Z AUTO 06004KT 9999 OVC110 17/11 Q1007 BLU
02:25
V
18 °C 10 km+ 9.700 ft 070°   070° 3 kt METAR EHEH 230025Z AUTO 07003KT 060V120 9999 FEW090 BKN097 OVC100 18/11 Q1007 BLU
01:55
V
18 °C 10 km+ 11.000 ft 090°   090° 6 kt METAR EHEH 222355Z AUTO 09006KT 050V120 9999 FEW068 SCT092 OVC110 18/11 Q1007 BLU
01:25
V
18 °C 10 km+ 9.300 ft 090°   090° 5 kt METAR EHEH 222325Z AUTO 09005KT 050V110 9999 SCT087 OVC093 18/11 Q1008 BLU
00:55
V
19 °C 10 km+ 8.900 ft 100°   100° 6 kt METAR EHEH 222255Z AUTO 10006KT 070V130 9999 BKN089 OVC095 19/11 Q1008 BLU
00:25
V
18 °C 10 km+ 10.000 ft 080°   080° 4 kt METAR EHEH 222225Z AUTO 08004KT 9999 FEW094 OVC100 18/11 Q1009 BLU

22 maja 2022

Czas Kod Pogoda Temp. Widoczność Chmury Wiatr METAR/SPECI
23:55
V
19 °C 10 km+ 11.000 ft 070°   070° 5 kt METAR EHEH 222155Z AUTO 07005KT 9999 OVC110 19/11 Q1009 BLU
23:25
V
18 °C 10 km+ 15.000 ft 090°   090° 4 kt METAR EHEH 222125Z AUTO 09004KT 320V130 9999 OVC150 18/11 Q1009 BLU
22:55
V
19 °C 10 km+ 12.000 ft 070°   070° 5 kt METAR EHEH 222055Z AUTO 07005KT 030V130 9999 OVC120 19/10 Q1009 BLU NOSIG
22:25
V
19 °C 10 km+ 14.000 ft 060°   060° 5 kt METAR EHEH 222025Z AUTO 06005KT 9999 OVC140 19/10 Q1010 BLU NOSIG
21:55
V
20 °C 10 km+ 15.000 ft 080°   080° 3 kt METAR EHEH 221955Z AUTO 08003KT 040V140 9999 OVC150 20/10 Q1010 BLU NOSIG
21:25
V
20 °C 10 km+ 16.000 ft 080°   080° 4 kt METAR EHEH 221925Z AUTO 08004KT 050V200 9999 OVC160 20/10 Q1010 BLU NOSIG
20:55
V
21 °C 10 km+ 19.000 ft 110°   110° 3 kt METAR EHEH 221855Z AUTO 11003KT 040V120 9999 OVC190 21/10 Q1010 BLU NOSIG
20:25
V
21 °C 10 km+ 19.000 ft 120°   120° 4 kt METAR EHEH 221825Z AUTO 12004KT 070V130 9999 OVC190 21/09 Q1010 BLU NOSIG
19:55
V
22 °C 10 km+ 22.000 ft 100°   100° 4 kt METAR EHEH 221755Z AUTO 10004KT 080V150 9999 OVC220 22/10 Q1011 BLU NOSIG
19:25
V
22 °C 10 km+ 28.000 ft Var   Var 3 kt METAR EHEH 221725Z AUTO VRB03KT 9999 BKN280 OVC330 22/10 Q1011 BLU NOSIG
18:55
V
23 °C 10 km+ 31.000 ft Var   Var 5 kt METAR EHEH 221655Z AUTO VRB05KT 9999 OVC310 23/09 Q1011 BLU NOSIG
18:25
V
23 °C 10 km+ 29.000 ft 110°   110° 3 kt METAR EHEH 221625Z AUTO 11003KT 030V200 9999 OVC290 23/09 Q1011 BLU NOSIG
17:55
V
23 °C 10 km+ 28.000 ft 080°   080° 4 kt METAR EHEH 221555Z AUTO 08004KT 090V230 9999 OVC280 23/09 Q1012 BLU NOSIG
17:25
V
23 °C 10 km+ 37.000 ft 170°   170° 5 kt METAR EHEH 221525Z AUTO 17005KT 080V240 9999 OVC370 23/09 Q1012 BLU NOSIG
16:55
V
23 °C 10 km+ - Var   Var 6 kt METAR EHEH 221455Z AUTO VRB06KT 9999 FEW380 23/08 Q1012 BLU NOSIG
16:25
V
23 °C 10 km+ - Var   Var 6 kt METAR EHEH 221425Z AUTO VRB06KT 9999 FEW360 23/09 Q1013 BLU NOSIG
15:55
V
23 °C 10 km+ - 060°   060° 7 30 kt METAR EHEH 221355Z AUTO 06007G30KT 030V190 9999 NCD 23/09 Q1013 BLU NOSIG
15:25
V
22 °C 10 km+ 10.000 ft Var   Var 3 kt METAR EHEH 221325Z AUTO VRB03KT 9999 BKN100 22/09 Q1013 BLU NOSIG
14:55
V
22 °C 10 km+ - Var   Var 5 kt METAR EHEH 221255Z AUTO VRB05KT 9999 NCD 22/09 Q1014 BLU NOSIG
14:25
V
22 °C 10 km+ - Var   Var 5 kt METAR EHEH 221225Z AUTO VRB05KT 9999 NCD 22/09 Q1014 BLU NOSIG
13:55
V
21 °C 10 km+ - Var   Var 5 kt METAR EHEH 221155Z AUTO VRB05KT 9999 FEW046 21/09 Q1015 BLU NOSIG
13:25
V
21 °C 10 km+ 36.000 ft Var   Var 4 kt METAR EHEH 221125Z AUTO VRB04KT 9999 SCT046 BKN360 21/09 Q1015 BLU NOSIG
12:55
V
20 °C 10 km+ 34.000 ft 190°   190° 4 kt METAR EHEH 221055Z AUTO 19004KT 060V220 9999 FEW044 BKN340 20/08 Q1016 BLU NOSIG
12:25
V
19 °C 10 km+ 26.000 ft Var   Var 6 kt METAR EHEH 221025Z AUTO VRB06KT 9999 FEW042 OVC260 19/09 Q1016 BLU NOSIG
11:55
V
20 °C 10 km+ 25.000 ft Var   Var 4 kt METAR EHEH 220955Z AUTO VRB04KT 9999 OVC250 20/09 Q1016 BLU NOSIG
11:25
V
19 °C 10 km+ 24.000 ft Var   Var 4 kt METAR EHEH 220925Z AUTO VRB04KT 9999 OVC240 19/09 Q1016 BLU NOSIG
10:55
V
18 °C 10 km+ 22.000 ft 090°   090° 3 kt METAR EHEH 220855Z AUTO 09003KT 340V100 9999 OVC220 18/09 Q1017 BLU NOSIG
10:25
V
18 °C 10 km+ 22.000 ft Var   Var 3 kt METAR EHEH 220825Z AUTO VRB03KT 9999 OVC220 18/08 Q1017 BLU NOSIG
09:55
V
18 °C 10 km+ 25.000 ft Var   Var 2 kt METAR EHEH 220755Z AUTO VRB02KT 9999 SCT038 OVC250 18/08 Q1017 BLU NOSIG
09:25
V
17 °C 10 km+ 3.700 ft Var   Var 1 kt METAR EHEH 220725Z AUTO VRB01KT 9999 OVC037 17/11 Q1017 BLU NOSIG
08:55
V
16 °C 10 km+ 3.700 ft Var   Var 1 kt METAR EHEH 220655Z AUTO VRB01KT 9999 BKN037 BKN340 16/10 Q1018 BLU NOSIG
08:25
V
15 °C 10 km+ 23.000 ft Var   Var 1 kt METAR EHEH 220625Z AUTO VRB01KT 9999 FEW039 OVC230 15/10 Q1017 BLU NOSIG
07:55
V
14 °C 10 km+ 33.000 ft Var   Var 1 kt METAR EHEH 220555Z AUTO VRB01KT 9999 FEW240 OVC330 14/10 Q1017 BLU NOSIG
07:25
V
12 °C 10 km+ 24.000 ft Var   Var 2 kt METAR EHEH 220525Z AUTO VRB02KT 9999 BKN240 OVC290 12/10 Q1017 BLU NOSIG
06:55
V
9 °C 10 km+ 23.000 ft 010°   010° 2 kt METAR EHEH 220455Z AUTO 01002KT 9999 OVC230 09/08 Q1017 BLU NOSIG
06:25
V
9 °C 10 km+ 33.000 ft Var   000° 0 kt METAR EHEH 220425Z AUTO 00000KT 9999 OVC330 09/08 Q1017 BLU NOSIG
05:55
V
8 °C 10 km+ - Var   Var 2 kt METAR EHEH 220355Z AUTO VRB02KT 9999 NCD 08/08 Q1017 BLU
05:25
V
8 °C 10 km+ - 160°   160° 1 kt METAR EHEH 220325Z AUTO 16001KT 9999 FEW044 08/08 Q1018 BLU
04:55
V
9 °C 10 km+ - Var   000° 0 kt METAR EHEH 220255Z AUTO 00000KT 9999 NCD 09/09 Q1018 BLU
04:25
V
10 °C 10 km+ 5.200 ft Var   Var 1 kt METAR EHEH 220225Z AUTO VRB01KT 9999 SCT041 SCT047 BKN052 10/09 Q1018 BLU
03:55
V
10 °C 10 km+ 5.300 ft Var   Var 2 kt METAR EHEH 220155Z AUTO VRB02KT 9999 SCT038 SCT045 BKN053 10/09 Q1018 BLU
03:25
V
10 °C 10 km+ - Var   Var 1 kt METAR EHEH 220125Z AUTO VRB01KT 9999 FEW045 SCT057 10/09 Q1019 BLU
02:55
V
9 °C 10 km+ 3.500 ft 250°   250° 1 kt METAR EHEH 220055Z AUTO 25001KT 9999 BKN035 OVC042 09/09 Q1019 BLU
02:25
V
9 °C 10 km+ 21.000 ft 250°   250° 1 kt METAR EHEH 220025Z AUTO 25001KT 9999 SCT044 BKN210 09/09 Q1019 BLU
01:55
V
10 °C 10 km+ 20.000 ft 270°   270° 1 kt METAR EHEH 212355Z AUTO 27001KT 9999 OVC200 10/09 Q1019 BLU
01:25
V
11 °C 10 km+ 5.200 ft 220°   220° 1 kt METAR EHEH 212325Z AUTO 22001KT 9999 OVC052 11/09 Q1019 BLU
00:55
V
11 °C 10 km+ 5.000 ft 250°   250° 1 kt METAR EHEH 212255Z AUTO 25001KT 9999 OVC050 11/09 Q1020 BLU
00:25
V
11 °C 10 km+ 5.100 ft Var   000° 0 kt METAR EHEH 212225Z AUTO 00000KT 9999 OVC051 11/09 Q1020 BLU

21 maja 2022

Czas Kod Pogoda Temp. Widoczność Chmury Wiatr METAR/SPECI
23:55
V
10 °C 10 km+ - Var   000° 0 kt METAR EHEH 212155Z AUTO 00000KT 9999 NCD 10/09 Q1020 BLU
23:25
V
11 °C 10 km+ 20.000 ft 250°   250° 1 kt METAR EHEH 212125Z AUTO 25001KT 9999 FEW053 BKN200 BKN350 11/09 Q1020 BLU
23:04
V
11 °C 10 km+ 18.000 ft 310°   310° 1 kt METAR EHEH 212104Z AUTO 31001KT 9999 SCT054 OVC180 11/09 Q1020 BLU
22:55
V
12 °C 10 km+ 18.000 ft Var   Var 1 kt METAR EHEH 212055Z AUTO VRB01KT 9999 FEW055 OVC180 12/09 Q1020 BLU NOSIG
22:25
V
13 °C 10 km+ 20.000 ft 340°   340° 2 kt METAR EHEH 212025Z AUTO 34002KT 9999 BKN200 13/09 Q1020 BLU NOSIG
21:55
V
14 °C 10 km+ 22.000 ft 340°   340° 3 kt METAR EHEH 211955Z AUTO 34003KT 9999 OVC220 14/09 Q1020 BLU NOSIG
21:25
V
15 °C 10 km+ 24.000 ft 340°   340° 5 kt METAR EHEH 211925Z AUTO 34005KT 260V010 9999 OVC240 15/10 Q1020 BLU NOSIG
20:55
V
16 °C 10 km+ 25.000 ft 340°   340° 6 kt METAR EHEH 211855Z AUTO 34006KT 310V020 9999 BKN250 OVC300 16/10 Q1020 BLU NOSIG
20:25
V
17 °C 10 km+ 32.000 ft 340°   340° 6 kt METAR EHEH 211825Z AUTO 34006KT 250V020 9999 BKN320 17/10 Q1020 BLU NOSIG
19:55
V
18 °C 10 km+ 12.000 ft 340°   340° 8 kt METAR EHEH 211755Z AUTO 34008KT 290V040 9999 OVC120 18/10 Q1020 BLU NOSIG
19:25
V
18 °C 10 km+ 12.000 ft 310°   310° 6 kt METAR EHEH 211725Z AUTO 31006KT 240V030 9999 FEW054 OVC120 18/10 Q1020 BLU NOSIG
18:55
V
18 °C 10 km+ 13.000 ft 310°   310° 6 kt METAR EHEH 211655Z AUTO 31006KT 250V350 9999 OVC130 18/09 Q1020 BLU NOSIG
18:25
V
18 °C 10 km+ 5.500 ft 280°   280° 5 kt METAR EHEH 211625Z AUTO 28005KT 240V350 9999 FEW042 SCT048 BKN055 18/10 Q1020 BLU NOSIG
17:55
V
19 °C 10 km+ 3.900 ft 280°   280° 7 kt METAR EHEH 211555Z AUTO 28007KT 250V360 9999 OVC039 19/10 Q1020 BLU NOSIG
17:25
V
18 °C 10 km+ 3.800 ft 250°   250° 6 kt METAR EHEH 211525Z AUTO 25006KT 210V330 9999 OVC038 18/10 Q1021 BLU NOSIG
16:55
V
19 °C 10 km+ 14.000 ft 280°   280° 7 kt METAR EHEH 211455Z AUTO 28007KT 230V020 9999 FEW038 SCT058 OVC140 19/10 Q1021 BLU NOSIG
16:25
V
19 °C 10 km+ 5.900 ft 270°   270° 7 kt METAR EHEH 211425Z AUTO 27007KT 220V340 9999 FEW039 SCT049 OVC059 19/10 Q1021 BLU NOSIG
15:55
V
18 °C 10 km+ 4.800 ft 250°   250° 10 kt METAR EHEH 211355Z AUTO 25010KT 210V300 9999 SCT038 SCT043 BKN048 18/10 Q1021 BLU NOSIG
15:25
V
19 °C 10 km+ 13.000 ft 260°   260° 8 kt METAR EHEH 211325Z AUTO 26008KT 210V300 9999 OVC130 19/10 Q1021 BLU NOSIG
14:55
V
19 °C 10 km+ 3.500 ft 250°   250° 10 kt METAR EHEH 211255Z AUTO 25010KT 200V300 9999 BKN035 BKN046 OVC054 19/09 Q1021 BLU NOSIG
14:25
V
19 °C 10 km+ 16.000 ft 250°   250° 10 kt METAR EHEH 211225Z AUTO 25010KT 210V330 9999 SCT032 SCT051 OVC160 19/11 Q1021 BLU NOSIG
13:55
V
18 °C 10 km+ 18.000 ft 240°   240° 11 kt METAR EHEH 211155Z AUTO 24011KT 200V300 9999 FEW035 SCT060 BKN180 18/10 Q1022 BLU NOSIG
13:25
V
19 °C 10 km+ 4.200 ft 250°   250° 9 kt METAR EHEH 211125Z AUTO 25009KT 200V280 9999 FEW031 SCT035 BKN042 19/11 Q1022 BLU NOSIG
12:55
V
18 °C 10 km+ 4.800 ft 250°   250° 11 kt METAR EHEH 211055Z AUTO 25011KT 200V280 9999 FEW030 SCT035 BKN048 18/10 Q1022 BLU NOSIG
12:25
V
16 °C 10 km+ 4.400 ft 230°   230° 10 kt METAR EHEH 211025Z AUTO 23010KT 220V300 9999 FEW028 SCT033 BKN044 16/10 Q1022 BLU NOSIG
11:55
V
16 °C 10 km+ 4.800 ft 240°   240° 12 kt METAR EHEH 210955Z AUTO 24012KT 190V270 9999 FEW026 BKN048 OVC054 16/10 Q1021 BLU NOSIG
11:25
V
17 °C 10 km+ 3.800 ft 240°   240° 14 kt METAR EHEH 210925Z AUTO 24014KT 210V310 9999 SCT024 SCT029 BKN038 17/11 Q1021 WHT NOSIG
11:17
M
16 °C 10 km+ 2.800 ft 240°   240° 12 kt METAR EHEH 210917Z AUTO 24012KT 210V300 9999 SCT024 BKN028 BKN035 16/10 Q1021 WHT NOSIG
11:08
V
16 °C 10 km+ 3.200 ft 240°   240° 10 kt METAR EHEH 210908Z AUTO 24010KT 200V290 9999 FEW023 SCT027 BKN032 16/10 Q1021 BLU NOSIG
10:59
M
16 °C 10 km+ 2.800 ft 240°   240° 10 kt METAR EHEH 210859Z AUTO 24010KT 210V290 9999 SCT023 BKN028 16/11 Q1021 WHT NOSIG
10:55
V
16 °C 10 km+ 3.400 ft 240°   240° 10 kt METAR EHEH 210855Z AUTO 24010KT 210V280 9999 SCT022 BKN034 BKN044 16/11 Q1022 WHT NOSIG
10:43
M
16 °C 10 km+ 2.700 ft 230°   230° 11 kt METAR EHEH 210843Z AUTO 23011KT 200V300 9999 SCT021 SCT024 BKN027 16/11 Q1021 WHT NOSIG
10:36
V
15 °C 10 km+ 3.100 ft 240°   240° 10 kt METAR EHEH 210836Z AUTO 24010KT 200V290 9999 SCT021 SCT027 BKN031 15/10 Q1021 WHT NOSIG
10:29
V
16 °C 10 km+ 3.500 ft 260°   260° 8 kt METAR EHEH 210829Z AUTO 26008KT 220V320 9999 FEW019 SCT026 BKN035 16/11 Q1022 BLU NOSIG
10:25
M
15 °C 10 km+ 2.200 ft 260°   260° 8 kt METAR EHEH 210825Z AUTO 26008KT 220V320 9999 SCT018 BKN022 BKN026 15/10 Q1022 WHT BECMG SCT020 BKN030
09:55
M
14 °C 10 km+ 2.100 ft 240°   240° 11 kt METAR EHEH 210755Z AUTO 24011KT 210V290 9999 SCT016 BKN021 BKN024 14/10 Q1021 WHT BECMG SCT020 BKN030
09:39
M
14 °C 10 km+ 1.600 ft 240°   240° 9 kt METAR EHEH 210739Z AUTO 24009KT 200V270 9999 BKN016 BKN020 OVC023 14/10 Q1021 WHT BECMG BKN020
09:25
M
14 °C 10 km+ 1.800 ft 240°   240° 11 kt METAR EHEH 210725Z AUTO 24011KT 180V290 9999 SCT015 BKN018 OVC022 14/11 Q1021 WHT TEMPO SCT010 BKN014 BECMG BKN020
09:09
M
14 °C 10 km+ 1.600 ft 240°   240° 11 kt METAR EHEH 210709Z AUTO 24011KT 210V280 9999 FEW013 BKN016 OVC019 14/10 Q1021 WHT TEMPO SCT010 BKN014 BECMG BKN020
08:55
M
14 °C 10 km+ 1.400 ft 240°   240° 11 kt METAR EHEH 210655Z AUTO 24011KT 200V290 9999 FEW011 BKN014 BKN016 14/10 Q1021 GRN TEMPO SCT010 BKN014 BECMG BKN020
Starsze dane

Pobierz naszą aplikację

Łatwy dostęp do całej pogody lotniczej na telefonie komórkowym i tablecie.
Z wieloma funkcjami niedostępnymi na stronie internetowej, takimi jak wsparcie offline i osobista lista lotnisk.

My i osoby trzecie śledzimy twoje zachowanie w internecie na naszej stronie za pomocą plików cookie. Jeśli kontynuujesz, zakładamy, że zgadzasz się z naszą polityką plików cookie. Dowiedz się więcej